Time;durP1;ratioP1;P1;durP2;ratioP2;P2;SDS_P1;SDS_P2;PMS_P1;PMS_P2;Temp;Humidity;BMP_temperature;BMP_pressure;BME280_temperature;BME280_humidity;BME280_pressure;Samples;Min_cycle;Max_cycle;Signal;HPM_P1;HPM_P2
2024/01/08 00:01:57;;;;;;;7.13;5.67;;;;;;;;;;5071540;28;21010;-47
2024/01/08 00:04:24;;;;;;;7.90;5.83;;;;;;;;;;5071555;28;20203;-48
2024/01/08 00:06:51;;;;;;;8.03;6.20;;;;;;;;;;5071369;28;20438;-48
2024/01/08 00:09:17;;;;;;;10.57;6.70;;;;;;;;;;5071450;28;20775;-47
2024/01/08 00:11:43;;;;;;;7.20;6.17;;;;;;;;;;5071296;28;20473;-47
2024/01/08 00:14:10;;;;;;;7.03;6.33;;;;;;;;;;5071177;28;20281;-47
2024/01/08 00:16:36;;;;;;;7.37;5.87;;;;;;;;;;5071216;28;20227;-48
2024/01/08 00:19:02;;;;;;;9.10;6.73;;;;;;;;;;5071195;28;20524;-47
2024/01/08 00:21:29;;;;;;;7.50;6.40;;;;;;;;;;5071074;28;20276;-47
2024/01/08 00:23:55;;;;;;;6.30;5.70;;;;;;;;;;5071031;28;20215;-47
2024/01/08 00:26:21;;;;;;;8.37;6.30;;;;;;;;;;5071177;28;20442;-47
2024/01/08 00:28:47;;;;;;;7.30;6.20;;;;;;;;;;5071138;28;20195;-47
2024/01/08 00:31:13;;;;;;;8.67;6.73;;;;;;;;;;5071385;28;20672;-47
2024/01/08 00:33:39;;;;;;;7.43;6.50;;;;;;;;;;5071306;28;20200;-47
2024/01/08 00:36:05;;;;;;;7.90;6.97;;;;;;;;;;5071028;28;20813;-48
2024/01/08 00:38:33;;;;;;;8.73;6.87;;;;;;;;;;5071193;28;20616;-47
2024/01/08 00:40:58;;;;;;;7.50;6.40;;;;;;;;;;5070890;28;20472;-48
2024/01/08 00:43:24;;;;;;;9.00;6.43;;;;;;;;;;5071252;28;20437;-48
2024/01/08 00:45:50;;;;;;;7.77;6.47;;;;;;;;;;5070892;28;20379;-48
2024/01/08 00:48:16;;;;;;;7.80;6.23;;;;;;;;;;5071204;28;20196;-48
2024/01/08 00:50:43;;;;;;;6.73;5.60;;;;;;;;;;5071133;28;20670;-47
2024/01/08 00:53:09;;;;;;;7.60;6.50;;;;;;;;;;5073014;28;20507;-47
2024/01/08 00:55:36;;;;;;;7.93;6.60;;;;;;;;;;5074458;28;20949;-48
2024/01/08 00:58:02;;;;;;;8.17;6.73;;;;;;;;;;5074715;28;20452;-48
2024/01/08 01:00:30;;;;;;;9.60;6.93;;;;;;;;;;5074526;28;20932;-47
2024/01/08 01:02:56;;;;;;;7.37;6.13;;;;;;;;;;5074541;28;20856;-47
2024/01/08 01:05:22;;;;;;;8.53;6.70;;;;;;;;;;5074730;28;20468;-48
2024/01/08 01:07:48;;;;;;;8.70;6.43;;;;;;;;;;5074289;28;20204;-48
2024/01/08 01:10:14;;;;;;;7.63;5.80;;;;;;;;;;5074195;28;20274;-47
2024/01/08 01:12:41;;;;;;;9.60;6.40;;;;;;;;;;5070969;28;20216;-49
2024/01/08 01:15:07;;;;;;;6.93;5.90;;;;;;;;;;5074554;28;20456;-49
2024/01/08 01:17:33;;;;;;;8.53;6.97;;;;;;;;;;5074299;28;20457;-49
2024/01/08 01:19:59;;;;;;;8.67;6.73;;;;;;;;;;5074362;28;20483;-50
2024/01/08 01:22:25;;;;;;;8.77;6.03;;;;;;;;;;5074255;28;20519;-49
2024/01/08 01:24:51;;;;;;;8.67;6.43;;;;;;;;;;5074050;28;20552;-49
2024/01/08 01:27:17;;;;;;;8.83;6.33;;;;;;;;;;5074174;28;20242;-49
2024/01/08 01:29:44;;;;;;;8.43;6.90;;;;;;;;;;5074297;28;20252;-49
2024/01/08 01:32:10;;;;;;;7.93;6.50;;;;;;;;;;5073950;28;20195;-49
2024/01/08 01:34:39;;;;;;;7.90;7.10;;;;;;;;;;5074005;28;20507;-48
2024/01/08 01:37:05;;;;;;;9.37;7.17;;;;;;;;;;5074117;28;20813;-48
2024/01/08 01:39:32;;;;;;;7.47;6.17;;;;;;;;;;5073977;28;20533;-48
2024/01/08 01:41:58;;;;;;;8.43;6.83;;;;;;;;;;5073816;28;20473;-49
2024/01/08 01:44:24;;;;;;;8.53;6.50;;;;;;;;;;5073920;28;20487;-48
2024/01/08 01:46:52;;;;;;;8.30;6.30;;;;;;;;;;5073849;28;20196;-50
2024/01/08 01:49:20;;;;;;;9.57;7.30;;;;;;;;;;5073751;28;20196;-48
2024/01/08 01:51:46;;;;;;;7.33;6.40;;;;;;;;;;5073998;28;20461;-50
2024/01/08 01:54:13;;;;;;;8.03;6.53;;;;;;;;;;5073767;28;20557;-50
2024/01/08 01:56:39;;;;;;;7.40;6.23;;;;;;;;;;5073745;28;20781;-50
2024/01/08 01:59:06;;;;;;;8.07;6.17;;;;;;;;;;5073451;28;20869;-50
2024/01/08 02:01:32;;;;;;;8.03;6.63;;;;;;;;;;5073608;28;20580;-50
2024/01/08 02:04:01;;;;;;;9.07;6.87;;;;;;;;;;5072344;28;20930;-50
2024/01/08 02:06:28;;;;;;;9.13;6.80;;;;;;;;;;5073778;28;20818;-49
2024/01/08 02:08:54;;;;;;;7.97;6.37;;;;;;;;;;5073377;28;20434;-50
2024/01/08 02:11:20;;;;;;;10.27;7.00;;;;;;;;;;5073485;28;20473;-49
2024/01/08 02:13:46;;;;;;;9.47;6.67;;;;;;;;;;5073644;28;20456;-50
2024/01/08 02:16:12;;;;;;;9.33;6.63;;;;;;;;;;5073204;28;20943;-50
2024/01/08 02:18:38;;;;;;;9.00;6.60;;;;;;;;;;5073392;28;20684;-49
2024/01/08 02:21:06;;;;;;;9.00;6.50;;;;;;;;;;5073029;28;20508;-49
2024/01/08 02:23:33;;;;;;;9.50;6.93;;;;;;;;;;5073296;28;20573;-49
2024/01/08 02:25:59;;;;;;;8.63;6.00;;;;;;;;;;5073111;28;20469;-50
2024/01/08 02:28:25;;;;;;;7.50;6.23;;;;;;;;;;5073414;28;20469;-49
2024/01/08 02:30:51;;;;;;;9.37;6.00;;;;;;;;;;5073029;28;20658;-49
2024/01/08 02:33:17;;;;;;;8.20;6.20;;;;;;;;;;5073224;28;20203;-49
2024/01/08 02:35:43;;;;;;;10.00;6.70;;;;;;;;;;5073152;28;20274;-50
2024/01/08 02:38:09;;;;;;;7.83;6.27;;;;;;;;;;5072963;28;20735;-50
2024/01/08 02:40:36;;;;;;;9.70;6.20;;;;;;;;;;5072770;28;20199;-50
2024/01/08 02:43:02;;;;;;;5.23;4.63;;;;;;;;;;5072718;28;20209;-49
2024/01/08 02:45:31;;;;;;;8.83;5.87;;;;;;;;;;5072942;28;20783;-49
2024/01/08 02:47:57;;;;;;;6.33;5.73;;;;;;;;;;5072691;28;20517;-49
2024/01/08 02:50:23;;;;;;;7.83;5.80;;;;;;;;;;5072367;28;20532;-50
2024/01/08 02:52:49;;;;;;;8.37;6.20;;;;;;;;;;5072526;28;20225;-49
2024/01/08 02:55:15;;;;;;;7.23;5.93;;;;;;;;;;5072497;28;20547;-49
2024/01/08 02:57:42;;;;;;;5.83;5.23;;;;;;;;;;5072542;28;20207;-48
2024/01/08 03:00:09;;;;;;;6.20;5.10;;;;;;;;;;5072664;28;20209;-49
2024/01/08 03:02:35;;;;;;;7.07;5.70;;;;;;;;;;5072401;28;20524;-49
2024/01/08 03:05:01;;;;;;;5.73;5.13;;;;;;;;;;5072390;28;20472;-49
2024/01/08 03:07:27;;;;;;;7.33;5.80;;;;;;;;;;5072458;28;20434;-50
2024/01/08 03:09:58;;;;;;;5.73;5.13;;;;;;;;;;5072053;28;20525;-49
2024/01/08 03:12:24;;;;;;;6.57;5.40;;;;;;;;;;5072363;28;20733;-49
2024/01/08 03:14:51;;;;;;;8.17;5.93;;;;;;;;;;5071817;28;20488;-49
2024/01/08 03:17:17;;;;;;;6.53;5.40;;;;;;;;;;5071978;28;20476;-49
2024/01/08 03:19:43;;;;;;;7.87;5.53;;;;;;;;;;5072319;28;20932;-49
2024/01/08 03:22:09;;;;;;;6.57;5.60;;;;;;;;;;5072082;28;20233;-49
2024/01/08 03:24:36;;;;;;;8.17;5.90;;;;;;;;;;5071854;28;20612;-49
2024/01/08 03:27:02;;;;;;;5.70;5.13;;;;;;;;;;5071977;28;20430;-49
2024/01/08 03:29:28;;;;;;;6.53;5.37;;;;;;;;;;5072062;28;20434;-49
2024/01/08 03:31:56;;;;;;;6.20;5.57;;;;;;;;;;5072123;28;20436;-49
2024/01/08 03:34:22;;;;;;;6.70;5.17;;;;;;;;;;5071942;28;20433;-49
2024/01/08 03:36:48;;;;;;;6.63;5.57;;;;;;;;;;5071967;28;20439;-49
2024/01/08 03:39:14;;;;;;;6.67;5.47;;;;;;;;;;5071781;28;20920;-49
2024/01/08 03:41:40;;;;;;;5.50;4.90;;;;;;;;;;5071817;28;20846;-49
2024/01/08 03:44:06;;;;;;;7.47;5.20;;;;;;;;;;5071681;28;20430;-49
2024/01/08 03:46:32;;;;;;;9.73;6.10;;;;;;;;;;5071808;28;20510;-49
2024/01/08 03:48:59;;;;;;;6.13;5.53;;;;;;;;;;5071811;28;20278;-50
2024/01/08 03:51:25;;;;;;;9.37;5.80;;;;;;;;;;5071671;28;20453;-49
2024/01/08 03:53:53;;;;;;;8.10;5.60;;;;;;;;;;5071822;28;20437;-49
2024/01/08 03:56:19;;;;;;;6.13;5.10;;;;;;;;;;5071627;28;20237;-49
2024/01/08 03:58:45;;;;;;;6.60;5.60;;;;;;;;;;5071712;28;20437;-49
2024/01/08 04:01:14;;;;;;;6.80;4.87;;;;;;;;;;5071328;28;20693;-49
2024/01/08 04:03:40;;;;;;;6.57;4.97;;;;;;;;;;5071596;28;20442;-49
2024/01/08 04:06:07;;;;;;;6.17;4.83;;;;;;;;;;5071683;28;20445;-49
2024/01/08 04:08:34;;;;;;;6.63;5.53;;;;;;;;;;5071521;28;20302;-49
2024/01/08 04:11:00;;;;;;;8.10;5.30;;;;;;;;;;5071499;28;20470;-49
2024/01/08 04:13:26;;;;;;;6.03;5.10;;;;;;;;;;5071388;28;20513;-50
2024/01/08 04:15:52;;;;;;;7.57;5.20;;;;;;;;;;5071488;28;21043;-49
2024/01/08 04:18:18;;;;;;;5.37;4.70;;;;;;;;;;5071255;28;20454;-50
2024/01/08 04:20:44;;;;;;;4.87;4.37;;;;;;;;;;5071463;28;20712;-50
2024/01/08 04:23:11;;;;;;;5.13;4.63;;;;;;;;;;5071264;28;20425;-49
2024/01/08 04:25:37;;;;;;;5.17;4.50;;;;;;;;;;5071446;28;20208;-49
2024/01/08 04:28:04;;;;;;;5.07;4.57;;;;;;;;;;5073831;28;20438;-49
2024/01/08 04:30:30;;;;;;;5.40;4.43;;;;;;;;;;5075428;28;20437;-50
2024/01/08 04:32:56;;;;;;;4.73;4.23;;;;;;;;;;5075231;28;20958;-50
2024/01/08 04:35:21;;;;;;;4.97;4.03;;;;;;;;;;5075226;28;20206;-49
2024/01/08 04:37:48;;;;;;;5.10;4.07;;;;;;;;;;5075188;28;20290;-49
2024/01/08 04:40:15;;;;;;;5.47;4.10;;;;;;;;;;5075092;28;20195;-50
2024/01/08 04:42:41;;;;;;;5.40;4.13;;;;;;;;;;5075098;28;20481;-49
2024/01/08 04:45:08;;;;;;;5.33;4.27;;;;;;;;;;5075025;28;20428;-50
2024/01/08 04:47:34;;;;;;;5.13;4.40;;;;;;;;;;5074942;28;20934;-49
2024/01/08 04:50:00;;;;;;;4.37;3.97;;;;;;;;;;5075156;28;20433;-50
2024/01/08 04:52:26;;;;;;;5.63;4.53;;;;;;;;;;5074952;28;20773;-49
2024/01/08 04:54:52;;;;;;;4.50;3.93;;;;;;;;;;5075001;28;20473;-50
2024/01/08 04:57:20;;;;;;;3.80;3.43;;;;;;;;;;5074596;28;20457;-50
2024/01/08 04:59:46;;;;;;;4.77;3.83;;;;;;;;;;5074836;28;20445;-50
2024/01/08 05:02:11;;;;;;;4.33;3.93;;;;;;;;;;5074521;28;20646;-50
2024/01/08 05:04:38;;;;;;;4.47;4.07;;;;;;;;;;5074589;28;20846;-49
2024/01/08 05:07:04;;;;;;;4.33;3.80;;;;;;;;;;5074766;28;20235;-49
2024/01/08 05:09:30;;;;;;;5.07;3.77;;;;;;;;;;5074559;28;20942;-49
2024/01/08 05:11:56;;;;;;;4.63;3.50;;;;;;;;;;5074423;28;20488;-48
2024/01/08 05:14:23;;;;;;;4.10;3.60;;;;;;;;;;5074343;28;20480;-49
2024/01/08 05:16:49;;;;;;;3.87;3.47;;;;;;;;;;5074207;28;20473;-49
2024/01/08 05:19:15;;;;;;;4.20;3.80;;;;;;;;;;5074403;28;20442;-49
2024/01/08 05:21:42;;;;;;;5.33;3.30;;;;;;;;;;5074299;28;20486;-50
2024/01/08 05:24:08;;;;;;;3.30;3.00;;;;;;;;;;5074197;28;20196;-49
2024/01/08 05:26:34;;;;;;;4.80;3.27;;;;;;;;;;5074286;28;20426;-49
2024/01/08 05:29:00;;;;;;;3.63;3.10;;;;;;;;;;5074417;28;20465;-49
2024/01/08 05:31:27;;;;;;;3.57;3.10;;;;;;;;;;5074168;28;20200;-49
2024/01/08 05:33:53;;;;;;;3.80;3.40;;;;;;;;;;5074193;28;20464;-50
2024/01/08 05:36:19;;;;;;;5.87;3.70;;;;;;;;;;5074045;28;20928;-49
2024/01/08 05:38:45;;;;;;;3.93;3.30;;;;;;;;;;5073895;28;20253;-49
2024/01/08 05:41:11;;;;;;;3.77;3.37;;;;;;;;;;5073962;28;20485;-49
2024/01/08 05:43:40;;;;;;;6.27;3.53;;;;;;;;;;5074018;28;20254;-50
2024/01/08 05:46:06;;;;;;;3.97;3.57;;;;;;;;;;5073828;28;20191;-49
2024/01/08 05:48:37;;;;;;;3.47;3.17;;;;;;;;;;5074017;28;20457;-49
2024/01/08 05:51:03;;;;;;;3.87;3.30;;;;;;;;;;5073796;28;20445;-48
2024/01/08 05:53:31;;;;;;;3.40;3.10;;;;;;;;;;5073663;28;20442;-49
2024/01/08 05:55:57;;;;;;;4.40;3.30;;;;;;;;;;5073854;28;20802;-49
2024/01/08 05:58:23;;;;;;;3.77;3.20;;;;;;;;;;5073720;28;20442;-49
2024/01/08 06:00:49;;;;;;;3.50;3.20;;;;;;;;;;5073577;28;20446;-49
2024/01/08 06:03:15;;;;;;;3.47;3.17;;;;;;;;;;5073804;28;20434;-50
2024/01/08 06:05:43;;;;;;;3.80;3.30;;;;;;;;;;5073639;28;20434;-50
2024/01/08 06:08:09;;;;;;;4.97;3.30;;;;;;;;;;5073388;28;20203;-49
2024/01/08 06:10:35;;;;;;;3.50;2.93;;;;;;;;;;5073203;28;20480;-50
2024/01/08 06:13:01;;;;;;;5.27;3.53;;;;;;;;;;5073501;28;20509;-50
2024/01/08 06:15:27;;;;;;;4.47;3.20;;;;;;;;;;5073108;28;20187;-50
2024/01/08 06:17:53;;;;;;;4.33;3.17;;;;;;;;;;5073004;28;20668;-50
2024/01/08 06:20:18;;;;;;;3.30;3.00;;;;;;;;;;5072789;28;20233;-50
2024/01/08 06:22:46;;;;;;;4.37;3.50;;;;;;;;;;5073144;28;20603;-49
2024/01/08 06:25:12;;;;;;;3.30;3.00;;;;;;;;;;5072897;28;20290;-49
2024/01/08 06:27:38;;;;;;;4.20;3.03;;;;;;;;;;5072800;28;20817;-49
2024/01/08 06:30:04;;;;;;;5.33;3.60;;;;;;;;;;5072810;28;20199;-49
2024/01/08 06:32:30;;;;;;;4.20;3.67;;;;;;;;;;5072968;28;20279;-49
2024/01/08 06:34:56;;;;;;;6.17;3.93;;;;;;;;;;5072877;28;20434;-50
2024/01/08 06:37:22;;;;;;;3.63;3.27;;;;;;;;;;5072706;28;20693;-50
2024/01/08 06:39:49;;;;;;;3.83;3.20;;;;;;;;;;5072689;28;20231;-49
2024/01/08 06:42:15;;;;;;;3.90;3.30;;;;;;;;;;5072761;28;20500;-50
2024/01/08 06:44:41;;;;;;;3.90;3.40;;;;;;;;;;5072823;28;20522;-50
2024/01/08 06:47:07;;;;;;;3.93;3.40;;;;;;;;;;5072674;28;20199;-49
2024/01/08 06:49:35;;;;;;;3.30;3.00;;;;;;;;;;5072104;28;20253;-50
2024/01/08 06:52:01;;;;;;;3.53;3.23;;;;;;;;;;5072671;28;20426;-49
2024/01/08 06:54:27;;;;;;;3.47;3.17;;;;;;;;;;5072407;28;20808;-50
2024/01/08 06:56:54;;;;;;;5.40;3.40;;;;;;;;;;5072507;28;20386;-49
2024/01/08 06:59:20;;;;;;;4.30;3.63;;;;;;;;;;5072419;28;20276;-50
2024/01/08 07:01:47;;;;;;;3.73;3.40;;;;;;;;;;5072489;28;20999;-50
2024/01/08 07:04:13;;;;;;;3.77;3.23;;;;;;;;;;5072412;28;20200;-49
2024/01/08 07:06:39;;;;;;;4.97;3.53;;;;;;;;;;5072312;28;20862;-49
2024/01/08 07:09:06;;;;;;;4.97;3.83;;;;;;;;;;5072229;28;20199;-50
2024/01/08 07:11:32;;;;;;;4.87;3.50;;;;;;;;;;5071923;28;20470;-49
2024/01/08 07:13:59;;;;;;;4.50;3.50;;;;;;;;;;5072392;28;20430;-49
2024/01/08 07:16:26;;;;;;;3.77;3.33;;;;;;;;;;5070558;28;20881;-49
2024/01/08 07:18:52;;;;;;;4.93;3.90;;;;;;;;;;5071980;28;20448;-49
2024/01/08 07:21:19;;;;;;;6.57;3.93;;;;;;;;;;5071955;28;20545;-49
2024/01/08 07:23:45;;;;;;;4.80;3.50;;;;;;;;;;5072287;28;20432;-50
2024/01/08 07:26:14;;;;;;;4.53;3.70;;;;;;;;;;5072154;28;20434;-49
2024/01/08 07:28:39;;;;;;;5.47;3.27;;;;;;;;;;5071959;28;20466;-50
2024/01/08 07:31:07;;;;;;;4.37;3.40;;;;;;;;;;5071998;28;20879;-49
2024/01/08 07:33:37;;;;;;;5.77;4.07;;;;;;;;;;5071831;28;20216;-50
2024/01/08 07:36:03;;;;;;;4.50;3.60;;;;;;;;;;5071754;28;20438;-50
2024/01/08 07:38:29;;;;;;;3.97;3.53;;;;;;;;;;5071193;28;20486;-50
2024/01/08 07:40:55;;;;;;;5.07;3.67;;;;;;;;;;5071491;28;20445;-49
2024/01/08 07:43:21;;;;;;;4.50;3.67;;;;;;;;;;5071776;28;20227;-49
2024/01/08 07:45:47;;;;;;;4.10;3.70;;;;;;;;;;5071738;28;20654;-50
2024/01/08 07:48:15;;;;;;;3.83;3.30;;;;;;;;;;5071298;28;20286;-49
2024/01/08 07:50:41;;;;;;;4.47;3.33;;;;;;;;;;5071834;28;20438;-49
2024/01/08 07:53:07;;;;;;;4.80;3.60;;;;;;;;;;5071696;28;20434;-49
2024/01/08 07:55:33;;;;;;;4.67;3.57;;;;;;;;;;5071634;28;20252;-49
2024/01/08 07:57:59;;;;;;;5.97;3.73;;;;;;;;;;5071800;28;20290;-50
2024/01/08 08:00:25;;;;;;;4.63;4.13;;;;;;;;;;5071501;28;20294;-50
2024/01/08 08:02:51;;;;;;;4.90;3.73;;;;;;;;;;5071026;28;20480;-50
2024/01/08 08:05:19;;;;;;;4.77;3.53;;;;;;;;;;5071529;28;20434;-50
2024/01/08 08:07:45;;;;;;;4.87;3.70;;;;;;;;;;5071714;28;20521;-50
2024/01/08 08:10:11;;;;;;;4.30;3.70;;;;;;;;;;5071161;28;20539;-50
2024/01/08 08:12:37;;;;;;;4.87;3.90;;;;;;;;;;5071436;28;20438;-50
2024/01/08 08:15:04;;;;;;;5.73;3.90;;;;;;;;;;5071485;28;20462;-49
2024/01/08 08:17:30;;;;;;;4.43;3.60;;;;;;;;;;5071559;28;20462;-49
2024/01/08 08:19:56;;;;;;;4.07;3.67;;;;;;;;;;5071753;28;20434;-49
2024/01/08 08:22:24;;;;;;;5.43;3.63;;;;;;;;;;5071211;28;20987;-49
2024/01/08 08:24:50;;;;;;;4.00;3.60;;;;;;;;;;5071359;28;20445;-49
2024/01/08 08:27:16;;;;;;;3.67;3.20;;;;;;;;;;5071417;28;20469;-49
2024/01/08 08:29:44;;;;;;;4.50;3.67;;;;;;;;;;5071360;28;20430;-50
2024/01/08 08:32:10;;;;;;;3.43;3.13;;;;;;;;;;5071237;28;20480;-49
2024/01/08 08:34:36;;;;;;;5.00;3.97;;;;;;;;;;5071343;28;20437;-49
2024/01/08 08:37:03;;;;;;;4.37;3.53;;;;;;;;;;5071461;28;20959;-49
2024/01/08 08:39:30;;;;;;;4.87;3.87;;;;;;;;;;5071452;28;20434;-49
2024/01/08 08:41:56;;;;;;;4.67;3.63;;;;;;;;;;5071317;28;20477;-48
2024/01/08 08:44:22;;;;;;;4.40;4.00;;;;;;;;;;5071043;28;20459;-47
2024/01/08 08:46:48;;;;;;;5.47;3.90;;;;;;;;;;5071015;28;20437;-48
2024/01/08 08:49:14;;;;;;;5.13;3.83;;;;;;;;;;5071309;28;20256;-48
2024/01/08 08:51:40;;;;;;;5.43;3.63;;;;;;;;;;5071060;28;20670;-48
2024/01/08 08:54:07;;;;;;;5.33;4.03;;;;;;;;;;5071133;28;20458;-48
2024/01/08 08:56:34;;;;;;;4.53;3.77;;;;;;;;;;5071105;28;20450;-48
2024/01/08 08:59:00;;;;;;;5.33;3.77;;;;;;;;;;5071177;28;20434;-48
2024/01/08 09:01:26;;;;;;;4.13;3.73;;;;;;;;;;5070935;28;20557;-48
2024/01/08 09:03:52;;;;;;;4.73;3.70;;;;;;;;;;5071044;28;20441;-48
2024/01/08 09:06:20;;;;;;;3.40;3.10;;;;;;;;;;5070952;28;20431;-48
2024/01/08 09:08:47;;;;;;;2.90;2.60;;;;;;;;;;5071033;28;20207;-49
2024/01/08 09:11:13;;;;;;;3.93;2.97;;;;;;;;;;5070916;28;20485;-48
2024/01/08 09:13:40;;;;;;;3.57;3.00;;;;;;;;;;5072506;28;20438;-49
2024/01/08 09:16:09;;;;;;;3.50;2.93;;;;;;;;;;5074533;28;20207;-49
2024/01/08 09:18:35;;;;;;;2.73;2.47;;;;;;;;;;5074434;28;20668;-48
2024/01/08 09:21:01;;;;;;;3.10;2.53;;;;;;;;;;5074775;28;20704;-49
2024/01/08 09:23:27;;;;;;;2.77;2.47;;;;;;;;;;5074396;28;20227;-48
2024/01/08 09:25:53;;;;;;;3.03;2.73;;;;;;;;;;5074518;28;20195;-49
2024/01/08 09:28:19;;;;;;;3.77;2.60;;;;;;;;;;5074317;28;20229;-49
2024/01/08 09:30:47;;;;;;;2.90;2.60;;;;;;;;;;5074275;28;20839;-48
2024/01/08 09:33:13;;;;;;;2.63;2.30;;;;;;;;;;5074629;28;20219;-48
2024/01/08 09:35:39;;;;;;;3.30;3.00;;;;;;;;;;5073988;28;20202;-48
2024/01/08 09:38:05;;;;;;;3.37;2.70;;;;;;;;;;5073970;28;20199;-50
2024/01/08 09:40:32;;;;;;;4.57;2.73;;;;;;;;;;5074047;28;20278;-49
2024/01/08 09:42:59;;;;;;;3.00;2.70;;;;;;;;;;5074137;28;20318;-49
2024/01/08 09:45:26;;;;;;;3.30;2.70;;;;;;;;;;5073873;28;20666;-49
2024/01/08 09:47:54;;;;;;;3.07;2.40;;;;;;;;;;5074032;28;20192;-49
2024/01/08 09:50:21;;;;;;;3.73;2.37;;;;;;;;;;5073977;28;20191;-50
2024/01/08 09:52:47;;;;;;;3.20;2.90;;;;;;;;;;5073871;28;20201;-49
2024/01/08 09:55:13;;;;;;;2.67;2.47;;;;;;;;;;5073894;28;20204;-49
2024/01/08 09:57:39;;;;;;;2.90;2.60;;;;;;;;;;5073743;28;20210;-50
2024/01/08 10:00:06;;;;;;;2.90;2.30;;;;;;;;;;5073598;28;20192;-49
2024/01/08 10:02:32;;;;;;;2.63;2.40;;;;;;;;;;5073622;28;20227;-49
2024/01/08 10:05:00;;;;;;;3.50;2.60;;;;;;;;;;5073663;28;20238;-50
2024/01/08 10:07:26;;;;;;;3.00;2.50;;;;;;;;;;5073674;28;20246;-51
2024/01/08 10:09:52;;;;;;;2.97;2.63;;;;;;;;;;5073722;28;20188;-51
2024/01/08 10:12:18;;;;;;;3.37;2.83;;;;;;;;;;5073464;28;20284;-50
2024/01/08 10:14:45;;;;;;;3.33;2.90;;;;;;;;;;5073578;28;20681;-50
2024/01/08 10:17:13;;;;;;;3.13;2.83;;;;;;;;;;5073221;28;20227;-51
2024/01/08 10:19:40;;;;;;;3.33;2.70;;;;;;;;;;5073076;28;20201;-50
2024/01/08 10:22:08;;;;;;;7.70;3.00;;;;;;;;;;5073372;28;20250;-50
2024/01/08 10:24:34;;;;;;;3.43;2.90;;;;;;;;;;5072184;28;20200;-50
2024/01/08 10:27:00;;;;;;;6.13;3.03;;;;;;;;;;5073549;28;20211;-51
2024/01/08 10:29:26;;;;;;;4.70;3.30;;;;;;;;;;5073320;28;20231;-50
2024/01/08 10:31:52;;;;;;;4.33;2.90;;;;;;;;;;5073026;28;20265;-50
2024/01/08 10:34:19;;;;;;;3.10;2.80;;;;;;;;;;5073271;28;20195;-50
2024/01/08 10:36:45;;;;;;;2.57;2.37;;;;;;;;;;5073159;28;20199;-50
2024/01/08 10:39:13;;;;;;;3.37;2.70;;;;;;;;;;5073271;28;20195;-50
2024/01/08 10:41:39;;;;;;;3.77;2.50;;;;;;;;;;5072759;28;20219;-50
2024/01/08 10:44:05;;;;;;;3.50;2.70;;;;;;;;;;5073108;28;20715;-49
2024/01/08 10:46:34;;;;;;;4.83;2.90;;;;;;;;;;5072942;28;20199;-49
2024/01/08 10:49:01;;;;;;;3.40;2.40;;;;;;;;;;5072870;28;20647;-49
2024/01/08 10:51:27;;;;;;;3.03;2.30;;;;;;;;;;5072953;28;20295;-49
2024/01/08 10:53:54;;;;;;;3.00;2.50;;;;;;;;;;5072777;28;20299;-49
2024/01/08 10:56:23;;;;;;;3.00;2.70;;;;;;;;;;5072837;28;20203;-49
2024/01/08 10:58:53;;;;;;;4.70;3.10;;;;;;;;;;5072487;28;20208;-50
2024/01/08 11:01:20;;;;;;;3.63;2.80;;;;;;;;;;5072545;28;20199;-49
2024/01/08 11:03:46;;;;;;;4.50;2.80;;;;;;;;;;5072616;28;20195;-50
2024/01/08 11:06:13;;;;;;;3.87;2.90;;;;;;;;;;5072592;28;20200;-49
2024/01/08 11:08:40;;;;;;;3.33;2.57;;;;;;;;;;5071974;28;20196;-49
2024/01/08 11:11:08;;;;;;;5.93;3.57;;;;;;;;;;5072015;28;20314;-49
2024/01/08 11:13:36;;;;;;;3.10;2.80;;;;;;;;;;5072245;28;20191;-49
2024/01/08 11:16:06;;;;;;;3.03;2.73;;;;;;;;;;5072676;28;20199;-49
2024/01/08 11:18:32;;;;;;;6.67;2.87;;;;;;;;;;5072272;28;20269;-49
2024/01/08 11:20:59;;;;;;;3.43;3.00;;;;;;;;;;5066732;28;20540;-48
2024/01/08 11:23:33;;;;;;;3.97;3.10;;;;;;;;;;5071824;28;20653;-48
2024/01/08 11:25:59;;;;;;;3.67;3.03;;;;;;;;;;5072303;28;20245;-48
2024/01/08 11:28:25;;;;;;;3.27;2.90;;;;;;;;;;5070392;28;20278;-47
2024/01/08 11:31:00;;;;;;;3.17;2.87;;;;;;;;;;5069626;28;20282;-48
2024/01/08 11:33:30;;;;;;;3.47;2.97;;;;;;;;;;5072013;28;20610;-48
2024/01/08 11:36:02;;;;;;;3.30;2.63;;;;;;;;;;5071715;28;20625;-48
2024/01/08 11:38:28;;;;;;;3.20;2.63;;;;;;;;;;5071880;28;20592;-48
2024/01/08 11:40:54;;;;;;;4.63;2.60;;;;;;;;;;5071841;28;20253;-49
2024/01/08 11:43:20;;;;;;;3.93;2.60;;;;;;;;;;5071534;28;20255;-48
2024/01/08 11:45:47;;;;;;;3.13;2.70;;;;;;;;;;5071697;28;20284;-48
2024/01/08 11:48:14;;;;;;;3.47;2.63;;;;;;;;;;5071937;28;20200;-48
2024/01/08 11:50:41;;;;;;;3.70;2.57;;;;;;;;;;5071791;28;20202;-48
2024/01/08 11:53:10;;;;;;;3.77;2.97;;;;;;;;;;5071416;28;20658;-48
2024/01/08 11:55:36;;;;;;;3.60;3.30;;;;;;;;;;5071460;28;20511;-48
2024/01/08 11:58:03;;;;;;;4.97;3.03;;;;;;;;;;5071508;28;20275;-48
2024/01/08 12:00:29;;;;;;;4.80;3.50;;;;;;;;;;5071296;28;20291;-48
2024/01/08 12:03:01;;;;;;;3.57;2.83;;;;;;;;;;5071522;28;20234;-48
2024/01/08 12:05:28;;;;;;;4.30;2.73;;;;;;;;;;5071671;28;20204;-48
2024/01/08 12:07:55;;;;;;;4.20;2.90;;;;;;;;;;5070982;28;20203;-48
2024/01/08 12:10:21;;;;;;;3.33;2.57;;;;;;;;;;5071354;28;20240;-48
2024/01/08 12:12:47;;;;;;;3.23;2.93;;;;;;;;;;5071244;28;20539;-48
2024/01/08 12:15:13;;;;;;;3.93;2.80;;;;;;;;;;5071644;28;20211;-48
2024/01/08 12:17:39;;;;;;;5.77;3.13;;;;;;;;;;5071153;28;20222;-49
2024/01/08 12:20:06;;;;;;;4.20;3.00;;;;;;;;;;5071299;28;20192;-48
2024/01/08 12:22:34;;;;;;;3.40;2.90;;;;;;;;;;5071113;28;20231;-49
2024/01/08 12:25:00;;;;;;;3.37;2.60;;;;;;;;;;5071184;28;20216;-49
2024/01/08 12:27:30;;;;;;;3.40;2.93;;;;;;;;;;5071347;28;20199;-49
2024/01/08 12:29:57;;;;;;;4.00;3.60;;;;;;;;;;5071017;28;20180;-49
2024/01/08 12:32:23;;;;;;;3.77;3.03;;;;;;;;;;5069429;28;20214;-49
2024/01/08 12:34:50;;;;;;;4.37;3.10;;;;;;;;;;5068898;28;20199;-49
2024/01/08 12:37:16;;;;;;;4.23;3.03;;;;;;;;;;5071559;28;20294;-48
2024/01/08 12:39:44;;;;;;;4.37;3.10;;;;;;;;;;5070548;28;20198;-48
2024/01/08 12:42:10;;;;;;;5.03;3.60;;;;;;;;;;5071240;28;20231;-48
2024/01/08 12:44:36;;;;;;;4.77;3.30;;;;;;;;;;5071218;28;20196;-48
2024/01/08 12:47:07;;;;;;;3.63;3.20;;;;;;;;;;5071246;28;20203;-48
2024/01/08 12:49:33;;;;;;;4.00;3.30;;;;;;;;;;5074334;28;20634;-48
2024/01/08 12:52:03;;;;;;;4.33;3.30;;;;;;;;;;5075152;28;20673;-48
2024/01/08 12:54:30;;;;;;;4.10;3.40;;;;;;;;;;5075093;28;20202;-48
2024/01/08 12:56:57;;;;;;;3.37;3.07;;;;;;;;;;5074946;28;20221;-48
2024/01/08 12:59:24;;;;;;;3.63;2.80;;;;;;;;;;5074988;28;20673;-48
2024/01/08 13:01:51;;;;;;;3.13;2.83;;;;;;;;;;5074598;28;20314;-48
2024/01/08 13:04:17;;;;;;;3.27;2.97;;;;;;;;;;5075039;28;20210;-48
2024/01/08 13:06:43;;;;;;;3.63;3.10;;;;;;;;;;5072698;28;20196;-50
2024/01/08 13:09:10;;;;;;;3.70;3.13;;;;;;;;;;5072864;28;20672;-50
2024/01/08 13:11:36;;;;;;;4.73;3.03;;;;;;;;;;5074583;28;20255;-50
2024/01/08 13:14:14;;;;;;;3.57;3.00;;;;;;;;;;5074823;28;20665;-50
2024/01/08 13:16:40;;;;;;;3.70;3.00;;;;;;;;;;5074492;28;20223;-50
2024/01/08 13:19:09;;;;;;;3.93;3.03;;;;;;;;;;5074597;28;20205;-50
2024/01/08 13:21:42;;;;;;;3.43;3.13;;;;;;;;;;5074499;28;20203;-50
2024/01/08 13:24:09;;;;;;;4.10;3.20;;;;;;;;;;5074510;28;20210;-50
2024/01/08 13:26:35;;;;;;;3.90;2.90;;;;;;;;;;5074323;28;20563;-50
2024/01/08 13:29:03;;;;;;;3.90;2.87;;;;;;;;;;5074582;28;20200;-51
2024/01/08 13:31:31;;;;;;;4.17;3.00;;;;;;;;;;5074335;28;20210;-51
2024/01/08 13:33:56;;;;;;;3.20;2.90;;;;;;;;;;5074341;28;20708;-51
2024/01/08 13:36:22;;;;;;;4.50;2.97;;;;;;;;;;5074076;28;20442;-49
2024/01/08 13:38:49;;;;;;;3.57;3.00;;;;;;;;;;5074004;28;20535;-49
2024/01/08 13:41:15;;;;;;;3.73;3.20;;;;;;;;;;5074238;28;20195;-49
2024/01/08 13:43:41;;;;;;;3.90;2.90;;;;;;;;;;5073797;28;20231;-49
2024/01/08 13:46:09;;;;;;;4.23;3.30;;;;;;;;;;5074019;28;20253;-49
2024/01/08 13:48:36;;;;;;;6.23;3.23;;;;;;;;;;5073884;28;20441;-48
2024/01/08 13:51:02;;;;;;;3.60;3.03;;;;;;;;;;5073791;28;20437;-49
2024/01/08 13:53:28;;;;;;;3.97;3.13;;;;;;;;;;5074232;28;20430;-48
2024/01/08 13:55:54;;;;;;;3.10;2.53;;;;;;;;;;5073568;28;20503;-49
2024/01/08 13:58:20;;;;;;;3.70;3.10;;;;;;;;;;5073702;28;20573;-49
2024/01/08 14:00:47;;;;;;;3.43;2.83;;;;;;;;;;5073513;28;20434;-48
2024/01/08 14:03:13;;;;;;;4.87;3.07;;;;;;;;;;5073777;28;20234;-48
2024/01/08 14:05:40;;;;;;;5.47;3.30;;;;;;;;;;5073620;28;20438;-48
2024/01/08 14:08:06;;;;;;;5.90;4.00;;;;;;;;;;5073513;28;20202;-49
2024/01/08 14:10:32;;;;;;;5.37;3.80;;;;;;;;;;5073499;28;20481;-49
2024/01/08 14:13:00;;;;;;;4.20;3.00;;;;;;;;;;5073438;28;20422;-49
2024/01/08 14:15:26;;;;;;;4.07;3.10;;;;;;;;;;5073483;28;20438;-49
2024/01/08 14:17:57;;;;;;;4.00;3.33;;;;;;;;;;5073139;28;20545;-49
2024/01/08 14:20:23;;;;;;;3.37;3.07;;;;;;;;;;5073289;28;20460;-50
2024/01/08 14:22:50;;;;;;;4.37;3.37;;;;;;;;;;5073052;28;21067;-50
2024/01/08 14:25:16;;;;;;;7.03;3.50;;;;;;;;;;5073197;28;20701;-50
2024/01/08 14:27:42;;;;;;;3.63;2.73;;;;;;;;;;5073220;28;20434;-50
2024/01/08 14:30:09;;;;;;;3.17;2.87;;;;;;;;;;5073055;28;20504;-50
2024/01/08 14:32:35;;;;;;;4.27;2.90;;;;;;;;;;5072943;28;20565;-50
2024/01/08 14:35:03;;;;;;;4.00;2.80;;;;;;;;;;5072777;28;20461;-52
2024/01/08 14:37:29;;;;;;;2.97;2.67;;;;;;;;;;5073034;28;20445;-49
2024/01/08 14:39:57;;;;;;;2.87;2.60;;;;;;;;;;5072770;28;20436;-48